Time;durP1;ratioP1;P1;durP2;ratioP2;P2;SDS_P1;SDS_P2;PMS_P1;PMS_P2;Temp;Humidity;BMP_temperature;BMP_pressure;BME280_temperature;BME280_humidity;BME280_pressure;Samples;Min_cycle;Max_cycle;Signal;HPM_P1;HPM_P2
2023/07/28 00:01:10;;;;;;;3.10;1.60;;;;;;;19.59;47.35;96931.81;5069516;28;20203;-76
2023/07/28 00:03:37;;;;;;;2.43;1.80;;;;;;;19.38;47.92;96930.00;5072747;28;20192;-72
2023/07/28 00:06:04;;;;;;;2.70;1.60;;;;;;;19.38;47.54;96918.66;5069378;28;20597;-71
2023/07/28 00:08:31;;;;;;;2.00;1.73;;;;;;;19.43;47.56;96924.38;5071987;28;20223;-75
2023/07/28 00:10:58;;;;;;;4.43;1.77;;;;;;;19.48;47.41;96927.44;5069506;28;20257;-73
2023/07/28 00:13:25;;;;;;;3.43;1.60;;;;;;;19.53;47.27;96925.28;5087565;28;20252;-71
2023/07/28 00:15:52;;;;;;;3.63;1.63;;;;;;;19.57;47.01;96939.00;5087464;28;20187;-74
2023/07/28 00:18:21;;;;;;;2.67;2.07;;;;;;;19.65;47.03;96936.56;5086624;28;20234;-74
2023/07/28 00:20:48;;;;;;;3.07;1.73;;;;;;;19.65;47.05;96940.03;5087535;28;20191;-72
2023/07/28 00:23:15;;;;;;;3.20;1.80;;;;;;;19.64;46.89;96929.66;5068419;28;20192;-75
2023/07/28 00:25:42;;;;;;;3.43;1.90;;;;;;;19.44;47.05;96919.00;5087493;28;20210;-76
2023/07/28 00:28:09;;;;;;;3.23;1.80;;;;;;;19.57;47.40;96920.59;5086850;28;20670;-70
2023/07/28 00:30:36;;;;;;;2.97;1.73;;;;;;;19.45;47.60;96931.16;5087058;28;20192;-76
2023/07/28 00:33:03;;;;;;;4.87;2.07;;;;;;;19.37;47.59;96938.84;5068938;28;20188;-72
2023/07/28 00:35:32;;;;;;;3.33;1.73;;;;;;;19.32;47.72;96922.59;5068485;28;20626;-73
2023/07/28 00:37:59;;;;;;;3.53;1.70;;;;;;;19.47;47.62;96944.19;5069223;28;20681;-80
2023/07/28 00:40:26;;;;;;;2.17;1.73;;;;;;;19.49;47.43;96950.94;5086449;28;20198;-80
2023/07/28 00:42:53;;;;;;;2.27;1.60;;;;;;;19.47;47.76;96945.00;5069015;28;20249;-75
2023/07/28 00:45:21;;;;;;;1.93;1.70;;;;;;;19.34;47.75;96936.47;5086578;28;20216;-81
2023/07/28 00:47:49;;;;;;;2.70;1.87;;;;;;;19.32;47.90;96948.03;5086854;28;20192;-78
2023/07/28 00:50:16;;;;;;;2.00;1.80;;;;;;;19.36;47.90;96926.69;5068811;28;20206;-79
2023/07/28 00:52:43;;;;;;;3.07;1.60;;;;;;;19.46;47.42;96945.13;5068547;28;20191;-72
2023/07/28 00:55:10;;;;;;;2.03;1.73;;;;;;;19.32;47.84;96934.91;5068905;28;20220;-73
2023/07/28 00:57:39;;;;;;;3.50;1.70;;;;;;;19.33;47.86;96942.69;5067746;28;20710;-83
2023/07/28 01:00:06;;;;;;;3.53;2.30;;;;;;;19.39;47.88;96942.16;5069054;28;20274;-80
2023/07/28 01:02:34;;;;;;;2.47;1.93;;;;;;;19.32;47.98;96951.50;5068186;28;20212;-76
2023/07/28 01:05:01;;;;;;;2.43;1.90;;;;;;;19.34;47.96;96948.78;5086801;28;20683;-83
2023/07/28 01:07:36;;;;;;;4.37;2.10;;;;;;;19.22;47.73;96928.75;5069020;28;20187;-76
2023/07/28 01:10:10;;;;;;;3.37;1.80;;;;;;;19.32;47.96;96940.16;5086274;28;20219;-77
2023/07/28 01:12:37;;;;;;;3.67;1.53;;;;;;;19.36;48.40;96947.69;5068946;28;20256;-71
2023/07/28 01:15:05;;;;;;;3.63;1.93;;;;;;;19.29;47.92;96925.47;5086593;28;20177;-78
2023/07/28 01:17:32;;;;;;;3.77;2.40;;;;;;;19.35;48.31;96956.50;5087295;28;20272;-80
2023/07/28 01:20:00;;;;;;;2.73;2.00;;;;;;;19.37;48.46;96954.59;5068342;28;20694;-80
2023/07/28 01:22:52;;;;;;;3.40;1.90;;;;;;;19.35;48.43;96967.03;5086611;28;20682;-82
2023/07/28 01:25:49;;;;;;;3.17;1.90;;;;;;;19.41;48.46;96957.81;5086847;28;20304;-73
2023/07/28 01:28:18;;;;;;;2.30;1.83;;;;;;;19.45;48.39;96954.78;5067783;28;20196;-80
2023/07/28 01:30:45;;;;;;;2.40;2.10;;;;;;;19.63;48.29;96957.72;5068459;28;20641;-76
2023/07/28 01:33:12;;;;;;;4.27;1.77;;;;;;;19.66;48.10;96960.06;5068734;28;20184;-81
2023/07/28 01:35:40;;;;;;;2.90;1.97;;;;;;;19.66;47.92;96951.38;5068080;28;20188;-79
2023/07/28 01:38:07;;;;;;;2.13;1.80;;;;;;;19.48;48.35;96949.31;5086503;28;20224;-77
2023/07/28 01:40:34;;;;;;;3.07;2.20;;;;;;;19.43;48.63;96961.97;5085853;28;20592;-79
2023/07/28 01:43:01;;;;;;;4.97;1.90;;;;;;;19.46;48.94;96963.50;5068809;28;20681;-84
2023/07/28 01:45:28;;;;;;;4.50;2.20;;;;;;;19.27;49.37;96958.91;5067554;28;20620;-84
2023/07/28 01:47:55;;;;;;;2.40;2.20;;;;;;;19.07;50.67;96959.69;5052000;28;20916;-77
2023/07/28 01:50:22;;;;;;;2.43;1.93;;;;;;;18.93;51.45;96964.38;5087762;28;20281;-79
2023/07/28 01:52:49;;;;;;;3.07;2.23;;;;;;;18.89;50.90;96962.97;5071753;28;20890;-77
2023/07/28 01:55:17;;;;;;;2.60;2.00;;;;;;;18.94;51.31;96974.75;5072209;28;20199;-81
2023/07/28 01:57:57;;;;;;;2.47;2.10;;;;;;;18.97;52.15;96976.31;5071425;28;20329;-81
2023/07/28 02:00:24;;;;;;;4.03;2.17;;;;;;;18.84;52.31;96950.22;5072113;28;20192;-84
2023/07/28 02:02:52;;;;;;;4.80;1.90;;;;;;;18.72;53.09;96960.84;5071399;28;20643;-78
2023/07/28 02:05:20;;;;;;;4.67;2.20;;;;;;;18.95;52.91;96984.31;5054917;28;20561;-85
2023/07/28 02:07:47;;;;;;;2.17;1.90;;;;;;;18.76;53.48;96976.22;5071649;28;20215;-77
2023/07/28 02:10:14;;;;;;;3.67;2.23;;;;;;;18.81;54.11;96976.72;5089456;28;20239;-83
2023/07/28 02:12:41;;;;;;;2.60;2.10;;;;;;;18.74;53.84;96962.41;5089897;28;20195;-80
2023/07/28 02:15:09;;;;;;;3.43;2.40;;;;;;;18.51;54.90;96968.63;5070929;28;20216;-80
2023/07/28 02:17:36;;;;;;;3.63;1.90;;;;;;;18.73;54.28;96994.84;5090010;28;20260;-81
2023/07/28 02:20:04;;;;;;;2.20;2.00;;;;;;;18.71;54.68;96986.28;5070890;28;20205;-78
2023/07/28 02:22:32;;;;;;;3.97;2.10;;;;;;;18.65;54.13;96979.69;5071744;28;20624;-79
2023/07/28 02:25:01;;;;;;;4.63;2.20;;;;;;;18.71;54.05;96990.66;5089295;28;20202;-80
2023/07/28 02:27:32;;;;;;;2.13;1.93;;;;;;;18.51;54.43;96986.97;5071538;28;20721;-81
2023/07/28 02:29:59;;;;;;;3.17;2.10;;;;;;;18.56;54.77;96982.22;5054569;28;20291;-76
2023/07/28 02:32:32;;;;;;;3.50;2.30;;;;;;;18.58;54.26;96991.63;5071258;28;20186;-78
2023/07/28 02:35:00;;;;;;;2.53;2.20;;;;;;;18.55;54.17;96988.41;5071591;28;20218;-81
2023/07/28 02:37:29;;;;;;;2.47;2.27;;;;;;;18.17;54.76;96974.78;5089202;28;20201;-74
2023/07/28 02:39:57;;;;;;;3.03;1.97;;;;;;;18.35;54.67;97000.44;5089449;28;20327;-73
2023/07/28 02:42:25;;;;;;;3.07;2.00;;;;;;;18.05;55.08;96999.31;5089189;28;20266;-72
2023/07/28 02:44:52;;;;;;;3.87;2.10;;;;;;;17.85;56.93;97009.50;5070648;28;20192;-76
2023/07/28 02:47:19;;;;;;;2.70;1.97;;;;;;;17.94;56.62;97009.78;5071319;28;20641;-76
2023/07/28 02:49:46;;;;;;;3.73;2.10;;;;;;;17.96;55.80;96984.28;5070146;28;20193;-74
2023/07/28 02:52:13;;;;;;;2.90;2.23;;;;;;;17.97;55.85;96999.88;5071381;28;20199;-76
2023/07/28 02:54:40;;;;;;;3.40;2.30;;;;;;;18.03;56.12;97009.09;5070450;28;20182;-80
2023/07/28 02:57:08;;;;;;;3.17;2.10;;;;;;;17.47;57.68;96984.47;5088949;28;20585;-79
2023/07/28 02:59:36;;;;;;;3.87;2.17;;;;;;;17.39;57.98;96997.31;5070503;28;20217;-76
2023/07/28 03:02:04;;;;;;;2.73;2.27;;;;;;;17.40;58.64;97007.66;5069246;28;20543;-73
2023/07/28 03:04:31;;;;;;;2.90;2.10;;;;;;;17.51;58.52;97009.53;5088968;28;20244;-77
2023/07/28 03:07:16;;;;;;;2.40;2.20;;;;;;;17.42;58.88;96978.75;5088033;28;20186;-81
2023/07/28 03:09:47;;;;;;;3.90;2.43;;;;;;;17.30;59.32;97008.44;5070686;28;20283;-72
2023/07/28 03:12:14;;;;;;;3.83;2.40;;;;;;;16.90;60.88;97016.53;5088241;28;20190;-77
2023/07/28 03:14:41;;;;;;;3.70;3.03;;;;;;;16.57;61.75;97013.69;5070408;28;20188;-75
2023/07/28 03:17:08;;;;;;;5.03;2.90;;;;;;;16.48;62.36;97013.47;5037242;28;20190;-78
2023/07/28 03:19:35;;;;;;;2.97;2.53;;;;;;;16.47;63.25;97014.41;5070647;28;20736;-77
2023/07/28 03:22:03;;;;;;;4.00;2.53;;;;;;;16.11;65.05;97010.78;5072961;28;20272;-82
2023/07/28 03:24:30;;;;;;;3.53;2.50;;;;;;;16.15;64.15;97011.41;5069948;28;20599;-80
2023/07/28 03:26:57;;;;;;;2.90;2.53;;;;;;;16.08;64.36;97004.91;5053705;28;20290;-79
2023/07/28 03:29:24;;;;;;;2.77;2.27;;;;;;;16.22;64.06;97010.88;5088032;28;20193;-74
2023/07/28 03:31:52;;;;;;;2.93;2.50;;;;;;;15.98;64.78;97028.22;5088229;28;21044;-75
2023/07/28 03:34:19;;;;;;;2.63;2.40;;;;;;;16.08;64.66;97020.59;5070284;28;20200;-79
2023/07/28 03:36:46;;;;;;;3.67;2.50;;;;;;;16.04;64.56;97009.53;5069920;28;20222;-77
2023/07/28 03:39:15;;;;;;;2.80;2.40;;;;;;;16.39;64.56;97032.41;5070394;28;20220;-81
2023/07/28 03:41:46;;;;;;;3.23;2.63;;;;;;;16.97;62.78;97030.88;5069248;28;20217;-74
2023/07/28 03:44:13;;;;;;;4.80;2.27;;;;;;;17.71;60.62;97033.28;5070527;28;20593;-83
2023/07/28 03:46:40;;;;;;;3.80;2.20;;;;;;;17.97;58.88;97014.78;5069461;28;20189;-81
2023/07/28 03:49:07;;;;;;;3.37;2.57;;;;;;;18.56;56.71;97038.13;5069678;28;20191;-75
2023/07/28 03:51:34;;;;;;;4.77;2.60;;;;;;;18.88;56.02;97040.84;5069662;28;20185;-78
2023/07/28 03:54:02;;;;;;;4.63;2.70;;;;;;;18.68;55.59;97025.84;5087326;28;20190;-81
2023/07/28 03:56:29;;;;;;;3.73;2.70;;;;;;;18.05;57.08;97044.72;5069813;28;20617;-71
2023/07/28 03:58:56;;;;;;;3.97;2.83;;;;;;;17.88;57.58;97032.03;5087104;28;20226;-74
2023/07/28 04:01:24;;;;;;;4.20;3.30;;;;;;;17.89;57.56;97039.78;5088105;28;20191;-72
2023/07/28 04:03:51;;;;;;;5.10;3.50;;;;;;;18.15;57.38;97047.47;5039157;28;20246;-77
2023/07/28 04:06:18;;;;;;;6.17;3.67;;;;;;;18.01;57.38;97056.34;5074053;28;20245;-75
2023/07/28 04:08:45;;;;;;;5.90;3.57;;;;;;;18.29;57.00;97049.88;5070588;28;20262;-76
2023/07/28 04:11:15;;;;;;;5.90;3.80;;;;;;;18.25;57.20;97057.16;5070346;28;20189;-78
2023/07/28 04:13:42;;;;;;;4.90;3.03;;;;;;;18.36;56.60;97038.78;5087879;28;20616;-71
2023/07/28 04:16:12;;;;;;;4.37;3.00;;;;;;;18.35;56.22;96999.59;5086449;28;20383;-78
2023/07/28 04:18:39;;;;;;;3.87;3.30;;;;;;;18.53;56.71;97051.47;5069096;28;20302;-75
2023/07/28 04:21:08;;;;;;;3.73;2.73;;;;;;;18.48;57.12;97035.28;5086886;28;20212;-74
2023/07/28 04:23:35;;;;;;;5.60;2.50;;;;;;;18.60;56.75;97060.56;5068853;28;20654;-71
2023/07/28 04:26:02;;;;;;;4.87;3.00;;;;;;;18.59;57.07;97053.63;5068815;28;20192;-72
2023/07/28 04:28:30;;;;;;;3.03;2.57;;;;;;;18.78;56.06;97060.91;5068686;28;20195;-72
2023/07/28 04:31:00;;;;;;;8.03;2.90;;;;;;;19.00;55.92;97065.31;5069342;28;20211;-74
2023/07/28 04:34:06;;;;;;;5.20;2.70;;;;;;;18.96;55.54;97064.69;5081723;28;20191;-83
2023/07/28 04:36:52;;;;;;;5.13;2.33;;;;;;;18.90;55.61;97067.81;5086862;28;20186;-72
2023/07/28 04:39:23;;;;;;;3.47;2.70;;;;;;;19.00;55.74;97070.56;5069101;28;20219;-73
2023/07/28 04:41:52;;;;;;;9.03;2.87;;;;;;;18.84;56.08;97075.31;5068632;28;20236;-74
2023/07/28 04:44:20;;;;;;;5.83;2.00;;;;;;;19.31;54.86;97086.38;5052005;28;20195;-72
2023/07/28 04:46:50;;;;;;;3.73;2.27;;;;;;;19.54;54.50;97083.75;5068523;28;20615;-70
2023/07/28 04:49:17;;;;;;;5.20;2.10;;;;;;;19.45;54.35;97077.44;5068740;28;20287;-75
2023/07/28 04:52:02;;;;;;;6.43;2.50;;;;;;;19.73;53.95;97086.53;5068669;28;20199;-74
2023/07/28 04:54:45;;;;;;;3.77;2.70;;;;;;;19.98;53.11;97088.81;5037275;28;20257;-75
2023/07/28 04:57:12;;;;;;;3.87;2.33;;;;;;;20.44;51.07;97086.72;5087255;28;20271;-72
2023/07/28 04:59:42;;;;;;;3.87;2.03;;;;;;;20.12;51.86;97086.72;5068295;28;20276;-73
2023/07/28 05:02:11;;;;;;;3.10;2.17;;;;;;;19.24;54.25;97095.72;5068918;28;20188;-78
2023/07/28 05:04:38;;;;;;;3.43;2.80;;;;;;;20.03;52.54;97060.38;5052062;28;20249;-74
2023/07/28 05:07:05;;;;;;;2.70;2.50;;;;;;;20.91;50.01;97095.81;5051533;28;20584;-77
2023/07/28 05:09:33;;;;;;;7.03;2.43;;;;;;;20.76;49.53;97089.22;5070612;28;20279;-76
2023/07/28 05:12:03;;;;;;;3.93;2.43;;;;;;;20.36;50.68;97093.56;5070175;28;20194;-73
2023/07/28 05:14:38;;;;;;;2.67;2.10;;;;;;;20.27;50.25;97079.38;5070806;28;20213;-73
2023/07/28 05:17:05;;;;;;;4.57;2.10;;;;;;;20.73;50.62;97095.56;5071027;28;20224;-86
2023/07/28 05:19:46;;;;;;;3.23;2.00;;;;;;;21.03;48.70;97095.63;5073074;28;20301;-82
2023/07/28 05:22:17;;;;;;;2.57;2.33;;;;;;;20.73;48.82;97092.94;5095344;28;20241;-85
2023/07/28 05:24:48;;;;;;;3.20;1.80;;;;;;;20.15;50.31;97096.16;5074398;28;20193;-76
2023/07/28 05:27:17;;;;;;;3.30;2.13;;;;;;;20.25;50.73;97100.56;5067759;28;20559;-79
2023/07/28 05:29:47;;;;;;;2.87;2.07;;;;;;;20.47;50.67;97104.84;5089212;28;20182;-73
2023/07/28 05:32:14;;;;;;;2.53;2.23;;;;;;;20.75;49.62;97087.56;5098026;28;20188;-82
2023/07/28 05:35:00;;;;;;;2.07;1.87;;;;;;;21.19;48.62;97096.91;5074564;28;20192;-85
2023/07/28 05:37:30;;;;;;;4.70;2.00;;;;;;;21.64;47.18;97098.09;5056644;28;20202;-84
2023/07/28 05:39:57;;;;;;;2.70;2.10;;;;;;;21.36;47.68;97098.91;5091112;28;20278;-82
2023/07/28 05:42:25;;;;;;;3.03;2.20;;;;;;;21.40;47.52;97092.38;5055283;28;20247;-82
2023/07/28 05:44:54;;;;;;;4.73;2.40;;;;;;;21.38;47.68;97091.69;5072310;28;20208;-86
2023/07/28 05:47:22;;;;;;;5.37;3.10;;;;;;;21.88;47.22;97098.59;5055811;28;20679;-84
2023/07/28 05:49:50;;;;;;;4.87;2.70;;;;;;;21.95;46.64;97069.88;5071715;28;20192;-73
2023/07/28 05:52:17;;;;;;;4.50;2.13;;;;;;;22.32;46.70;97087.47;5071856;28;20194;-88
2023/07/28 05:54:45;;;;;;;3.83;2.10;;;;;;;22.45;45.74;97097.72;5072375;28;20202;-80
2023/07/28 05:57:12;;;;;;;3.77;2.40;;;;;;;22.91;45.01;97118.06;5091172;28;20792;-80
2023/07/28 05:59:39;;;;;;;3.83;2.60;;;;;;;23.04;44.62;97113.31;5073435;28;20249;-89
2023/07/28 06:02:06;;;;;;;4.00;2.40;;;;;;;22.87;44.54;97098.22;5090898;28;20249;-80
2023/07/28 06:04:54;;;;;;;4.47;2.30;;;;;;;23.08;44.23;97114.69;5072121;28;20191;-78
2023/07/28 06:07:22;;;;;;;7.03;2.90;;;;;;;23.22;44.34;97109.75;5071879;28;20189;-84
2023/07/28 06:09:52;;;;;;;14.03;2.10;;;;;;;23.51;43.51;97124.66;5093501;28;20235;-74
2023/07/28 06:12:30;;;;;;;5.40;2.20;;;;;;;23.65;42.90;97114.41;5075346;28;20224;-75
2023/07/28 06:15:16;;;;;;;5.07;2.43;;;;;;;23.80;42.55;97123.50;5062263;28;20197;-83
2023/07/28 06:17:47;;;;;;;4.43;2.80;;;;;;;23.54;42.12;97119.06;5043798;28;20203;-76
2023/07/28 06:20:15;;;;;;;4.80;2.43;;;;;;;23.76;42.60;97116.84;5073289;28;20291;-73
2023/07/28 06:22:42;;;;;;;3.57;2.70;;;;;;;23.77;42.04;97112.38;5090065;28;20209;-72
2023/07/28 06:25:09;;;;;;;2.90;2.30;;;;;;;23.40;40.97;97118.59;5071019;28;20195;-71
2023/07/28 06:27:38;;;;;;;4.43;1.80;;;;;;;23.35;41.26;97127.94;5056556;28;20199;-73
2023/07/28 06:30:07;;;;;;;3.27;2.27;;;;;;;22.93;42.53;97097.63;5089644;28;20194;-73
2023/07/28 06:32:34;;;;;;;3.77;3.07;;;;;;;23.32;41.82;97128.25;5089813;28;20200;-74
2023/07/28 06:35:02;;;;;;;14.37;3.30;;;;;;;23.43;41.19;97120.13;5070466;28;20264;-75
2023/07/28 06:37:51;;;;;;;4.40;2.73;;;;;;;23.61;41.68;97118.34;5093278;28;20199;-73
2023/07/28 06:40:18;;;;;;;3.47;2.07;;;;;;;23.63;40.47;97111.09;5056748;28;20619;-83
2023/07/28 06:42:46;;;;;;;3.47;1.87;;;;;;;23.58;40.18;97117.78;5071320;28;20231;-73
2023/07/28 06:45:14;;;;;;;3.37;2.57;;;;;;;23.74;39.70;97113.50;5071136;28;20249;-77
2023/07/28 06:47:41;;;;;;;3.63;2.60;;;;;;;23.73;40.39;97068.69;5070739;28;20682;-76
2023/07/28 06:50:09;;;;;;;3.13;2.60;;;;;;;24.11;39.45;97097.56;5054861;28;20290;-75
2023/07/28 06:52:36;;;;;;;5.63;3.17;;;;;;;24.19;39.00;97111.66;5053374;28;20233;-74
2023/07/28 06:55:04;;;;;;;6.43;3.17;;;;;;;24.17;39.02;97095.09;5089450;28;20197;-75
2023/07/28 06:57:31;;;;;;;3.23;2.03;;;;;;;24.17;38.48;97100.41;5088926;28;20311;-74
2023/07/28 07:00:00;;;;;;;5.03;2.70;;;;;;;24.26;38.30;97103.94;5088592;28;20219;-81
2023/07/28 07:02:32;;;;;;;2.53;2.03;;;;;;;24.39;37.35;97100.91;5088638;28;20245;-74
2023/07/28 07:04:59;;;;;;;3.20;2.00;;;;;;;23.65;39.01;97098.56;5070014;28;20224;-73
2023/07/28 07:07:26;;;;;;;2.93;2.27;;;;;;;23.86;39.43;97090.34;5054702;28;20194;-74
2023/07/28 07:09:56;;;;;;;3.47;2.10;;;;;;;23.45;38.26;97046.78;5069674;28;20231;-73
2023/07/28 07:12:24;;;;;;;4.63;3.00;;;;;;;23.92;38.16;97095.84;5088970;28;20189;-77
2023/07/28 07:14:51;;;;;;;2.40;2.20;;;;;;;23.77;37.83;97091.22;5070616;28;20184;-74
2023/07/28 07:17:19;;;;;;;3.43;2.13;;;;;;;24.24;37.65;97101.47;5053842;28;20194;-73
2023/07/28 07:19:46;;;;;;;4.23;2.40;;;;;;;24.56;36.28;97095.59;5088289;28;20222;-74
2023/07/28 07:22:13;;;;;;;5.43;2.67;;;;;;;24.87;35.92;97098.63;5087306;28;20190;-74
2023/07/28 07:24:40;;;;;;;6.33;2.67;;;;;;;25.12;35.39;97099.59;5091672;28;20194;-79
2023/07/28 07:27:10;;;;;;;3.67;2.43;;;;;;;25.14;35.57;97097.63;5069478;28;20190;-77
2023/07/28 07:29:38;;;;;;;3.30;3.00;;;;;;;25.28;35.89;97104.97;5087528;28;20256;-74
2023/07/28 07:32:07;;;;;;;5.60;4.27;;;;;;;25.28;34.86;97105.81;5088517;28;20274;-74
2023/07/28 07:34:34;;;;;;;4.33;2.20;;;;;;;25.05;34.60;97107.34;5069335;28;20193;-81
2023/07/28 07:37:01;;;;;;;6.27;5.57;;;;;;;24.93;35.16;97103.31;5070197;28;20211;-74
2023/07/28 07:39:28;;;;;;;3.57;2.80;;;;;;;24.46;37.19;97091.38;5069522;28;20236;-76
2023/07/28 07:41:56;;;;;;;3.93;2.60;;;;;;;24.23;36.36;97020.38;5088257;28;20714;-74
2023/07/28 07:44:23;;;;;;;5.70;2.90;;;;;;;24.29;36.70;97089.59;5052666;28;20206;-83
2023/07/28 07:46:51;;;;;;;4.27;2.80;;;;;;;23.61;36.81;97091.91;5069807;28;20203;-84
2023/07/28 07:49:18;;;;;;;2.13;1.93;;;;;;;23.76;36.26;97076.34;5068931;28;20207;-83
2023/07/28 07:51:45;;;;;;;6.03;3.73;;;;;;;23.84;35.23;97098.44;5087971;28;20199;-80
2023/07/28 07:54:15;;;;;;;3.77;2.00;;;;;;;24.17;33.86;97089.00;5089559;28;20268;-75
2023/07/28 07:56:42;;;;;;;3.93;2.93;;;;;;;23.85;35.10;97084.22;5089022;28;20214;-74
2023/07/28 07:59:10;;;;;;;3.57;2.70;;;;;;;23.95;34.97;97078.81;5071083;28;20320;-76
2023/07/28 08:01:37;;;;;;;3.03;2.13;;;;;;;23.80;34.61;97086.47;5087830;28;20667;-76
2023/07/28 08:04:04;;;;;;;2.47;1.90;;;;;;;24.24;35.04;97085.59;5076078;28;20195;-75
2023/07/28 08:06:31;;;;;;;4.60;1.90;;;;;;;23.98;35.16;97058.22;5076391;28;20190;-76
2023/07/28 08:09:01;;;;;;;2.50;2.20;;;;;;;24.11;34.97;97076.38;5055431;28;20253;-73
2023/07/28 08:11:28;;;;;;;3.03;2.13;;;;;;;24.33;35.67;97083.00;5071344;28;20228;-75
2023/07/28 08:13:55;;;;;;;2.30;2.10;;;;;;;24.53;35.00;97080.00;5068926;28;20280;-77
2023/07/28 08:16:22;;;;;;;4.33;2.80;;;;;;;24.74;35.08;97074.38;5087920;28;20185;-74
2023/07/28 08:18:49;;;;;;;3.30;2.70;;;;;;;25.26;34.17;97075.97;5068474;28;20201;-78
2023/07/28 08:21:16;;;;;;;4.90;2.40;;;;;;;25.65;33.81;97063.84;5069032;28;20274;-78
2023/07/28 08:24:23;;;;;;;1.73;1.40;;;;;;;25.82;32.89;97081.44;5068381;28;20245;-81
2023/07/28 08:27:44;;;;;;;3.43;2.17;;;;;;;25.84;33.00;97083.97;5085243;28;20199;-78
2023/07/28 08:31:05;;;;;;;2.33;1.97;;;;;;;25.92;33.28;97080.47;5085531;28;20618;-77
2023/07/28 08:34:27;;;;;;;2.93;2.20;;;;;;;26.08;34.47;97076.06;5086909;28;20194;-74
2023/07/28 08:37:48;;;;;;;4.73;2.37;;;;;;;26.27;32.61;97070.41;5088018;28;20281;-78
2023/07/28 08:41:09;;;;;;;2.87;1.90;;;;;;;26.45;32.31;97072.88;5087185;28;20577;-72
2023/07/28 08:44:30;;;;;;;4.17;2.20;;;;;;;26.33;32.33;97064.44;5070298;28;20294;-75
2023/07/28 08:47:50;;;;;;;2.43;2.10;;;;;;;25.75;32.56;97047.78;5090145;28;20193;-73
2023/07/28 08:51:14;;;;;;;3.60;2.00;;;;;;;25.54;33.26;97072.09;5088064;28;20262;-80
2023/07/28 08:54:34;;;;;;;6.20;2.30;;;;;;;25.08;32.39;97069.91;5053110;28;20200;-73
2023/07/28 08:57:55;;;;;;;6.43;4.03;;;;;;;25.35;31.88;97075.00;5066173;28;20619;-77
2023/07/28 09:01:16;;;;;;;5.43;3.37;;;;;;;25.33;32.85;97058.41;5067055;28;20793;-74
2023/07/28 09:04:36;;;;;;;2.50;2.27;;;;;;;25.87;31.41;97061.53;5069677;28;20202;-79
2023/07/28 09:07:57;;;;;;;3.90;2.47;;;;;;;25.35;31.83;97056.44;5085319;28;20254;-82
2023/07/28 09:11:05;;;;;;;4.03;1.80;;;;;;;25.53;32.05;97065.13;5069286;28;20193;-75
2023/07/28 09:14:26;;;;;;;7.23;2.67;;;;;;;26.07;31.55;97050.47;5069952;28;20580;-78
2023/07/28 09:17:27;;;;;;;2.53;2.00;;;;;;;25.53;32.49;97057.16;5086436;28;20267;-72
2023/07/28 09:20:48;;;;;;;3.60;1.80;;;;;;;24.60;32.64;97043.97;5070170;28;20227;-81
2023/07/28 09:24:09;;;;;;;3.70;2.53;;;;;;;24.96;30.86;97049.97;5052973;28;20255;-75
2023/07/28 09:27:30;;;;;;;2.97;2.20;;;;;;;24.88;31.92;97042.81;5069047;28;20254;-78
2023/07/28 09:31:02;;;;;;;5.47;3.13;;;;;;;24.72;31.43;97045.38;5067526;28;20250;-82
2023/07/28 09:34:23;;;;;;;4.90;2.83;;;;;;;25.35;31.77;97045.81;5068608;28;20243;-76
2023/07/28 09:37:44;;;;;;;2.13;1.90;;;;;;;25.84;31.68;97044.97;5070354;28;20683;-73
2023/07/28 09:40:22;;;;;;;3.50;2.10;;;;;;;26.09;31.83;97043.19;5054994;28;20234;-72
2023/07/28 09:42:51;;;;;;;2.30;2.10;;;;;;;26.08;31.72;97028.25;5087223;28;20181;-74
2023/07/28 09:45:23;;;;;;;2.83;1.57;;;;;;;26.09;31.38;97035.22;5089491;28;20213;-74
2023/07/28 09:48:15;;;;;;;3.00;2.03;;;;;;;26.23;30.55;97009.84;5043755;28;20691;-75
2023/07/28 09:50:47;;;;;;;2.17;1.87;;;;;;;26.24;31.61;97022.94;5069921;28;20684;-77
2023/07/28 09:53:16;;;;;;;3.90;1.87;;;;;;;26.30;31.48;97019.63;5087639;28;20204;-79
2023/07/28 09:55:45;;;;;;;2.40;1.90;;;;;;;26.34;31.64;97014.78;5069910;28;20221;-78
2023/07/28 09:58:17;;;;;;;2.50;2.30;;;;;;;26.65;32.54;97005.09;5067704;28;20287;-76
2023/07/28 10:00:46;;;;;;;3.53;2.10;;;;;;;26.72;31.13;96995.50;5052279;28;20251;-74
2023/07/28 10:03:14;;;;;;;5.87;3.17;;;;;;;27.01;31.13;97006.34;5068107;28;20177;-75
2023/07/28 10:05:42;;;;;;;3.03;2.60;;;;;;;27.22;30.46;96992.47;5086755;28;20694;-75
2023/07/28 10:08:10;;;;;;;3.03;2.30;;;;;;;27.24;30.50;96987.78;5051357;28;20219;-77
2023/07/28 10:10:41;;;;;;;4.10;2.77;;;;;;;27.38;30.52;96989.72;5085593;28;20216;-73
2023/07/28 10:13:19;;;;;;;2.30;1.90;;;;;;;26.85;30.63;96990.47;5089876;28;20216;-73
2023/07/28 10:15:49;;;;;;;4.83;3.57;;;;;;;26.87;30.51;96985.81;5071180;28;20181;-79
2023/07/28 10:18:22;;;;;;;4.00;3.60;;;;;;;26.95;30.70;96974.31;5054938;28;20228;-77
2023/07/28 10:20:51;;;;;;;3.83;2.17;;;;;;;27.13;30.25;96973.06;5089411;28;20239;-77
2023/07/28 10:23:23;;;;;;;1.73;1.63;;;;;;;27.02;28.61;96976.09;5072824;28;20664;-80
2023/07/28 10:25:59;;;;;;;3.13;2.37;;;;;;;27.16;29.46;96971.88;5091632;28;20681;-76
2023/07/28 10:28:34;;;;;;;2.53;1.97;;;;;;;27.12;29.60;96975.88;5092313;28;20218;-75
2023/07/28 10:31:05;;;;;;;3.50;2.13;;;;;;;27.30;29.58;96963.97;5073947;28;20321;-75
2023/07/28 10:33:34;;;;;;;2.70;1.80;;;;;;;27.34;29.71;96967.16;5071108;28;20500;-75
2023/07/28 10:36:21;;;;;;;4.73;2.10;;;;;;;27.52;29.39;96961.53;5089239;28;20273;-75
2023/07/28 10:39:04;;;;;;;4.87;2.60;;;;;;;27.72;28.64;96960.88;5090302;28;20216;-75
2023/07/28 10:41:35;;;;;;;7.03;4.33;;;;;;;27.66;27.90;96964.25;5071954;28;20191;-78
2023/07/28 10:44:08;;;;;;;2.70;1.93;;;;;;;27.69;28.53;96957.75;5057486;28;20204;-77
2023/07/28 10:46:37;;;;;;;3.63;2.50;;;;;;;27.79;28.45;96947.69;5072567;28;20592;-78
2023/07/28 10:49:08;;;;;;;2.60;1.90;;;;;;;27.72;28.27;96936.94;5038304;28;20193;-78
2023/07/28 10:51:36;;;;;;;3.87;1.87;;;;;;;27.45;28.20;96944.63;5090199;28;20215;-78
2023/07/28 10:54:04;;;;;;;2.40;1.90;;;;;;;27.73;28.36;96946.59;5071224;28;20200;-78
2023/07/28 10:56:34;;;;;;;3.00;1.90;;;;;;;27.75;28.49;96931.25;5039777;28;20275;-82
2023/07/28 10:59:06;;;;;;;3.90;2.87;;;;;;;28.16;27.73;96950.38;5070218;28;20196;-79
2023/07/28 11:01:34;;;;;;;3.90;2.90;;;;;;;28.20;27.88;96938.34;5071787;28;20282;-77
2023/07/28 11:04:13;;;;;;;3.17;1.63;;;;;;;28.28;27.04;96943.59;5071067;28;20188;-79
2023/07/28 11:06:42;;;;;;;3.07;2.00;;;;;;;27.99;26.76;96903.59;5088975;28;20192;-80
2023/07/28 11:09:12;;;;;;;4.17;1.57;;;;;;;28.15;26.93;96935.44;5071966;28;20254;-78
2023/07/28 11:11:40;;;;;;;3.53;1.70;;;;;;;28.12;26.86;96933.94;5070027;28;20211;-80
2023/07/28 11:14:16;;;;;;;1.60;1.40;;;;;;;27.73;26.87;96937.75;5071706;28;20640;-77
2023/07/28 11:16:47;;;;;;;1.93;1.30;;;;;;;27.75;26.27;96936.59;5090475;28;20193;-80
2023/07/28 11:19:19;;;;;;;1.80;1.70;;;;;;;27.66;27.82;96929.66;5045284;28;20192;-75
2023/07/28 11:21:51;;;;;;;2.00;1.80;;;;;;;27.93;27.00;96925.59;5100490;28;20185;-78
2023/07/28 11:24:20;;;;;;;2.07;1.60;;;;;;;27.89;27.08;96922.47;5055978;28;20732;-82
2023/07/28 11:26:49;;;;;;;3.13;1.60;;;;;;;27.88;27.23;96909.34;5054552;28;20208;-77
2023/07/28 11:29:19;;;;;;;4.17;1.50;;;;;;;27.99;27.88;96906.25;5070485;28;20261;-79
2023/07/28 11:31:48;;;;;;;3.53;1.80;;;;;;;28.18;27.16;96917.25;5071351;28;20192;-76
2023/07/28 11:34:17;;;;;;;2.43;2.10;;;;;;;27.71;27.43;96862.59;5088962;28;20185;-77
2023/07/28 11:36:44;;;;;;;1.93;1.60;;;;;;;27.91;27.44;96887.69;5073243;28;20216;-75
2023/07/28 11:39:12;;;;;;;2.43;1.80;;;;;;;27.88;27.41;96904.84;5092928;28;20216;-73
2023/07/28 11:41:41;;;;;;;3.93;2.67;;;;;;;27.88;27.72;96914.69;5093183;28;20617;-74
2023/07/28 11:44:15;;;;;;;2.33;1.73;;;;;;;28.11;27.72;96907.47;5072579;28;20185;-74
2023/07/28 11:46:43;;;;;;;4.20;2.00;;;;;;;28.10;27.37;96904.00;5071025;28;20719;-76
2023/07/28 11:49:15;;;;;;;1.63;1.50;;;;;;;27.80;27.33;96901.44;5090019;28;20670;-78
2023/07/28 11:51:45;;;;;;;3.67;1.90;;;;;;;27.92;27.87;96902.66;5090631;28;20197;-77
2023/07/28 11:54:14;;;;;;;4.07;2.97;;;;;;;28.16;27.35;96897.13;5076938;28;20267;-79
2023/07/28 11:56:43;;;;;;;2.90;1.40;;;;;;;27.53;26.82;96892.19;5091155;28;20200;-80
2023/07/28 11:59:12;;;;;;;2.07;1.70;;;;;;;27.20;27.89;96890.75;5037350;28;20199;-75
2023/07/28 12:02:02;;;;;;;2.37;1.60;;;;;;;27.07;27.22;96883.34;5090582;28;20686;-75
2023/07/28 12:04:39;;;;;;;15.67;9.30;;;;;;;27.41;27.25;96863.53;5073331;28;20207;-81